createdAt,value
2022-10-14T00:00:17.457Z,101521.53
2022-10-14T00:03:07.677Z,101519.81
2022-10-14T00:05:41.488Z,101514.56
2022-10-14T00:08:14.672Z,101514.56
2022-10-14T00:10:44.319Z,101509.38
2022-10-14T00:13:14.497Z,101511.16
2022-10-14T00:15:44.526Z,101516.50
2022-10-14T00:18:14.617Z,101505.97
2022-10-14T00:20:44.817Z,101507.72
2022-10-14T00:23:16.269Z,101513.88
2022-10-14T00:25:46.531Z,101512.13
2022-10-14T00:28:16.578Z,101505.16
2022-10-14T00:30:56.209Z,101501.63
2022-10-14T00:33:26.767Z,101505.06
2022-10-14T00:35:59.088Z,101496.19
2022-10-14T00:38:35.698Z,101495.28
2022-10-14T00:41:06.677Z,101493.44
2022-10-14T00:43:56.946Z,101494.34
2022-10-14T00:46:28.348Z,101493.53
2022-10-14T00:49:09.977Z,101485.53
2022-10-14T00:51:42.769Z,101482.88
2022-10-14T00:54:18.009Z,101485.53
2022-10-14T00:56:49.657Z,101480.19
2022-10-14T00:59:20.648Z,101482.78
2022-10-14T01:01:51.001Z,101478.31
2022-10-14T01:04:21.047Z,101473.91
2022-10-14T01:06:59.347Z,101472.19
2022-10-14T01:09:35.557Z,101473.03
2022-10-14T01:12:33.815Z,101473.94
2022-10-14T01:15:18.000Z,101478.41
2022-10-14T01:17:58.879Z,101468.66
2022-10-14T01:21:08.902Z,101474.00
2022-10-14T01:24:27.707Z,101467.63
2022-10-14T01:27:19.128Z,101468.44
2022-10-14T01:30:05.458Z,101462.28
2022-10-14T01:32:44.367Z,101461.44
2022-10-14T01:35:25.619Z,101456.97
2022-10-14T01:38:00.142Z,101453.56
2022-10-14T01:40:36.901Z,101453.69
2022-10-14T01:43:08.048Z,101449.28
2022-10-14T01:45:42.475Z,101445.78
2022-10-14T01:48:18.609Z,101448.41
2022-10-14T01:50:51.209Z,101448.41
2022-10-14T01:53:25.388Z,101441.25
2022-10-14T01:55:58.957Z,101445.63
2022-10-14T01:58:33.207Z,101445.56
2022-10-14T02:01:07.829Z,101437.63
2022-10-14T02:03:46.079Z,101438.50
2022-10-14T02:06:23.177Z,101437.44
2022-10-14T02:09:13.150Z,101434.75
2022-10-14T02:12:00.609Z,101439.03
2022-10-14T02:14:40.591Z,101442.53
2022-10-14T02:17:18.928Z,101435.59
2022-10-14T02:19:57.428Z,101433.81
2022-10-14T02:22:34.309Z,101426.84
2022-10-14T02:25:14.616Z,101422.44
2022-10-14T02:27:46.398Z,101419.00
2022-10-14T02:30:18.617Z,101416.44
2022-10-14T02:32:55.639Z,101418.31
2022-10-14T02:35:26.649Z,101421.91
2022-10-14T02:37:59.466Z,101426.31
2022-10-14T02:40:34.894Z,101422.03
2022-10-14T02:43:04.886Z,101422.09
2022-10-14T02:45:36.350Z,101422.13
2022-10-14T02:48:08.329Z,101422.19
2022-10-14T02:50:41.788Z,101419.59
2022-10-14T02:53:15.876Z,101410.84
2022-10-14T02:55:48.878Z,101409.91
2022-10-14T02:58:18.797Z,101407.28
2022-10-14T03:00:51.007Z,101415.19
2022-10-14T03:03:23.498Z,101407.28
2022-10-14T03:05:53.747Z,101409.03
2022-10-14T03:08:24.424Z,101413.47
2022-10-14T03:10:54.817Z,101410.78
2022-10-14T03:13:25.558Z,101406.41
2022-10-14T03:15:55.915Z,101407.25
2022-10-14T03:18:28.483Z,101408.16
2022-10-14T03:21:05.169Z,101404.59
2022-10-14T03:23:40.240Z,101400.19
2022-10-14T03:26:14.038Z,101398.41
2022-10-14T03:28:48.743Z,101396.59
2022-10-14T03:31:38.128Z,101400.06
2022-10-14T03:34:41.907Z,101391.19
2022-10-14T03:37:18.587Z,101402.50
2022-10-14T03:39:53.388Z,101398.88
2022-10-14T03:42:24.599Z,101404.16
2022-10-14T03:44:55.006Z,101408.59
2022-10-14T03:47:29.626Z,101402.34
2022-10-14T03:50:01.206Z,101397.09
2022-10-14T03:52:37.898Z,101389.09
2022-10-14T03:55:17.997Z,101396.94
2022-10-14T03:57:50.969Z,101397.72
2022-10-14T04:00:21.748Z,101315.06
2022-10-14T04:03:02.817Z,101385.00
2022-10-14T04:05:41.670Z,101391.03
2022-10-14T04:08:16.487Z,101398.84
2022-10-14T04:10:58.168Z,101394.34
2022-10-14T04:13:31.688Z,101388.22
2022-10-14T04:16:07.429Z,101381.16
2022-10-14T04:18:42.348Z,101384.59
2022-10-14T04:21:15.969Z,101377.44
2022-10-14T04:23:52.010Z,101380.03
2022-10-14T04:26:31.310Z,101382.72
2022-10-14T04:29:02.406Z,101376.44
2022-10-14T04:31:38.316Z,101370.16
2022-10-14T04:34:08.747Z,101359.53
2022-10-14T04:36:43.328Z,101364.69
2022-10-14T04:39:43.967Z,101369.09
2022-10-14T04:42:15.068Z,101362.91
2022-10-14T04:44:48.488Z,101367.28
2022-10-14T04:47:20.427Z,101365.53
2022-10-14T04:49:56.644Z,101363.94
2022-10-14T04:52:28.610Z,101359.44
2022-10-14T04:55:10.698Z,101359.22
2022-10-14T04:57:45.338Z,101361.78
2022-10-14T05:00:18.250Z,101364.34
2022-10-14T05:02:54.859Z,101359.03
2022-10-14T05:05:31.858Z,101362.66
2022-10-14T05:08:06.779Z,101366.97
2022-10-14T05:10:41.559Z,101358.31
2022-10-14T05:13:18.579Z,101360.97
2022-10-14T05:16:04.869Z,101353.19
2022-10-14T05:18:35.855Z,101353.16
2022-10-14T05:21:11.348Z,101347.88
2022-10-14T05:24:01.393Z,101359.22
2022-10-14T05:26:35.550Z,101348.78
2022-10-14T05:29:12.224Z,101356.56
2022-10-14T05:31:43.800Z,101351.38
2022-10-14T05:34:37.258Z,101343.56
2022-10-14T05:37:11.417Z,101340.19
2022-10-14T05:39:54.109Z,101348.03
2022-10-14T05:42:28.017Z,101338.47
2022-10-14T05:45:00.949Z,101343.03
2022-10-14T05:47:33.239Z,101341.47
2022-10-14T05:50:12.080Z,101341.56
2022-10-14T05:52:46.539Z,101341.56
2022-10-14T05:55:27.278Z,101346.03
2022-10-14T05:58:01.894Z,101346.91
2022-10-14T06:00:37.258Z,101352.25
2022-10-14T06:03:13.737Z,101350.53
2022-10-14T06:05:44.429Z,101350.53
2022-10-14T06:08:14.858Z,101352.28
2022-10-14T06:10:46.230Z,101354.94
2022-10-14T06:13:16.619Z,101355.91
2022-10-14T06:15:50.173Z,101355.13
2022-10-14T06:18:20.615Z,101352.53
2022-10-14T06:20:54.887Z,101357.78
2022-10-14T06:23:25.119Z,101349.00
2022-10-14T06:25:56.619Z,101349.09
2022-10-14T06:28:27.458Z,101356.28
2022-10-14T06:30:58.089Z,101360.78
2022-10-14T06:33:31.836Z,101357.38
2022-10-14T06:36:04.320Z,101346.84
2022-10-14T06:38:35.357Z,101351.28
2022-10-14T06:41:07.116Z,101347.78
2022-10-14T06:43:38.338Z,101348.78
2022-10-14T06:46:08.857Z,101344.47
2022-10-14T06:48:39.348Z,101352.63
2022-10-14T06:51:09.558Z,101357.22
2022-10-14T06:53:40.287Z,101353.91
2022-10-14T06:56:13.096Z,101355.81
2022-10-14T06:58:43.459Z,101352.50
2022-10-14T07:01:14.223Z,101356.22
2022-10-14T07:03:45.059Z,101342.28
2022-10-14T07:06:17.467Z,101346.84
2022-10-14T07:08:48.279Z,101345.34
2022-10-14T07:11:19.859Z,101345.81
2022-10-14T07:13:50.798Z,101344.03
2022-10-14T07:16:23.543Z,101347.56
2022-10-14T07:18:54.238Z,101342.28
2022-10-14T07:21:24.417Z,101345.84
2022-10-14T07:23:55.808Z,101351.16
2022-10-14T07:26:28.047Z,101350.25
2022-10-14T07:28:59.798Z,101347.50
2022-10-14T07:31:30.302Z,101338.34
2022-10-14T07:34:01.577Z,101336.16
2022-10-14T07:36:32.026Z,101329.53
2022-10-14T07:39:02.955Z,101333.91
2022-10-14T07:41:35.897Z,101339.50
2022-10-14T07:44:09.408Z,101333.56
2022-10-14T07:46:43.982Z,101336.03
2022-10-14T07:49:21.535Z,101334.66
2022-10-14T07:51:52.296Z,101336.31
2022-10-14T07:54:25.679Z,101336.88
2022-10-14T07:57:00.847Z,101336.84
2022-10-14T07:59:33.112Z,101332.16
2022-10-14T08:02:03.372Z,101331.06
2022-10-14T08:04:34.494Z,101334.63
2022-10-14T08:07:05.624Z,101332.94
2022-10-14T08:09:37.667Z,101326.72
2022-10-14T08:12:09.753Z,101319.03
2022-10-14T08:14:42.714Z,101321.09
2022-10-14T08:17:13.454Z,101317.91
2022-10-14T08:19:44.193Z,101310.59
2022-10-14T08:22:15.329Z,101310.41
2022-10-14T08:24:47.260Z,101314.84
2022-10-14T08:27:19.553Z,101313.34
2022-10-14T08:29:49.853Z,101309.72
2022-10-14T08:32:20.018Z,101313.63
2022-10-14T08:34:50.586Z,101313.19
2022-10-14T08:37:20.643Z,101311.78
2022-10-14T08:39:53.154Z,101303.00
2022-10-14T08:42:37.371Z,101302.69
2022-10-14T08:45:16.405Z,101301.19
2022-10-14T08:47:49.398Z,101310.38
2022-10-14T08:50:29.466Z,101298.34
2022-10-14T08:53:06.662Z,101299.13
2022-10-14T08:55:46.354Z,101293.41
2022-10-14T09:01:06.069Z,101292.91
2022-10-14T09:03:39.256Z,101298.34
2022-10-14T09:06:17.094Z,101297.47
2022-10-14T09:08:51.345Z,101297.00
2022-10-14T09:11:28.608Z,101297.28
2022-10-14T09:14:06.404Z,101287.91
2022-10-14T09:16:41.566Z,101289.25
2022-10-14T09:19:21.589Z,101293.91
2022-10-14T09:21:56.853Z,101297.03
2022-10-14T09:24:30.464Z,101293.78
2022-10-14T09:27:06.002Z,101291.50
2022-10-14T09:29:44.839Z,101290.25
2022-10-14T09:32:24.311Z,101290.13
2022-10-14T09:34:55.311Z,101299.84
2022-10-14T09:37:31.307Z,101293.53
2022-10-14T09:40:06.474Z,101287.56
2022-10-14T09:42:46.980Z,101285.94
2022-10-14T09:45:22.940Z,101263.84
2022-10-14T09:47:57.109Z,101289.50
2022-10-14T09:50:33.059Z,101289.19
2022-10-14T09:53:10.964Z,101288.25
2022-10-14T09:55:50.596Z,101282.75
2022-10-14T09:58:28.619Z,101277.34
2022-10-14T10:01:02.899Z,101285.31
2022-10-14T10:03:35.867Z,101279.63
2022-10-14T10:06:09.151Z,101285.41
2022-10-14T10:08:42.437Z,101277.25
2022-10-14T10:11:15.137Z,101279.06
2022-10-14T10:13:49.293Z,101273.00
2022-10-14T10:16:31.849Z,101282.09
2022-10-14T10:19:28.560Z,101281.81
2022-10-14T10:24:50.926Z,101274.34
2022-10-14T10:27:36.020Z,101269.84
2022-10-14T10:30:24.689Z,101270.06
2022-10-14T10:33:11.353Z,101268.63
2022-10-14T10:36:02.544Z,101268.53
2022-10-14T10:38:36.845Z,101266.50
2022-10-14T10:41:26.868Z,101270.22
2022-10-14T10:44:09.873Z,101266.84
2022-10-14T10:47:01.207Z,101271.34
2022-10-14T10:49:53.557Z,101271.34
2022-10-14T10:52:37.216Z,101267.59
2022-10-14T10:55:18.664Z,101280.81
2022-10-14T10:58:04.816Z,101272.63
2022-10-14T11:00:48.608Z,101274.47
2022-10-14T11:03:39.907Z,101276.84
2022-10-14T11:06:44.314Z,101261.50
2022-10-14T11:09:42.807Z,101275.97
2022-10-14T11:12:23.483Z,101268.69
2022-10-14T11:15:26.916Z,101273.31
2022-10-14T11:18:05.755Z,101268.72
2022-10-14T11:20:52.744Z,101259.06
2022-10-14T11:23:49.573Z,101270.69
2022-10-14T11:29:21.688Z,101264.84
2022-10-14T11:32:06.377Z,101263.63
2022-10-14T11:34:45.085Z,101258.53
2022-10-14T11:37:29.458Z,101251.31
2022-10-14T11:40:10.382Z,101255.81
2022-10-14T11:43:02.670Z,101256.97
2022-10-14T11:45:54.872Z,101243.06
2022-10-14T11:48:55.957Z,101245.66
2022-10-14T11:51:35.594Z,101239.56
2022-10-14T11:54:15.231Z,101239.56
2022-10-14T11:56:53.066Z,101241.28
2022-10-14T12:00:02.511Z,101243.22
2022-10-14T12:02:49.005Z,101240.50
2022-10-14T12:05:25.836Z,101236.69
2022-10-14T12:08:12.594Z,101230.38
2022-10-14T12:10:50.028Z,101229.41
2022-10-14T12:13:37.491Z,101230.31
2022-10-14T12:16:20.800Z,101229.25
2022-10-14T12:18:56.586Z,101221.22
2022-10-14T12:21:37.768Z,101222.88
2022-10-14T12:24:14.864Z,101226.53
2022-10-14T12:26:52.907Z,101226.69
2022-10-14T12:29:32.094Z,101216.69
2022-10-14T12:32:21.627Z,101221.19
2022-10-14T12:34:58.869Z,101222.78
2022-10-14T12:40:32.879Z,101216.31
2022-10-14T12:43:26.995Z,101209.91
2022-10-14T12:46:12.352Z,101207.13
2022-10-14T12:48:51.868Z,101207.59
2022-10-14T12:51:24.969Z,101208.69
2022-10-14T12:54:13.539Z,101202.81
2022-10-14T12:56:55.605Z,101210.19
2022-10-14T12:59:30.036Z,101202.22
2022-10-14T13:02:07.956Z,101207.00
2022-10-14T13:04:38.946Z,101202.28
2022-10-14T13:07:40.735Z,101201.41
2022-10-14T13:10:48.666Z,101189.28
2022-10-14T13:13:52.779Z,101191.81
2022-10-14T13:16:58.729Z,101187.34
2022-10-14T13:19:45.337Z,101192.53
2022-10-14T13:22:40.853Z,101198.03
2022-10-14T13:25:23.157Z,101192.03
2022-10-14T13:28:27.330Z,101199.06
2022-10-14T13:31:08.189Z,101200.94
2022-10-14T13:33:49.189Z,101203.63
2022-10-14T13:36:34.020Z,101201.03
2022-10-14T13:39:06.007Z,101195.38
2022-10-14T13:41:40.411Z,101186.22
2022-10-14T13:44:14.279Z,101189.91
2022-10-14T13:46:47.216Z,101190.00
2022-10-14T13:49:22.132Z,101191.13
2022-10-14T13:51:58.549Z,101183.28
2022-10-14T13:54:31.475Z,101188.69
2022-10-14T13:57:38.237Z,101161.44
2022-10-14T14:00:39.074Z,101185.91
2022-10-14T14:02:48.135Z,101188.69
2022-10-14T14:11:16.097Z,101182.69
2022-10-14T14:14:01.778Z,101181.97
2022-10-14T14:16:36.327Z,101177.56
2022-10-14T14:19:20.371Z,101178.69
2022-10-14T14:21:51.346Z,101176.94
2022-10-14T14:24:27.020Z,101177.16
2022-10-14T14:26:59.262Z,101179.06
2022-10-14T14:29:33.753Z,101179.25
2022-10-14T14:32:07.452Z,101174.06
2022-10-14T14:34:41.039Z,101177.59
2022-10-14T14:37:43.828Z,101174.13
2022-10-14T14:40:19.584Z,101168.03
2022-10-14T14:42:53.812Z,101173.59
2022-10-14T14:45:27.012Z,101175.53
2022-10-14T14:48:00.621Z,101179.34
2022-10-14T14:50:34.642Z,101173.25
2022-10-14T14:53:12.180Z,101177.81
2022-10-14T14:55:49.740Z,101174.41
2022-10-14T14:58:29.091Z,101183.53
2022-10-14T15:00:59.740Z,101175.69
2022-10-14T15:03:34.929Z,101183.88
2022-10-14T15:06:07.903Z,101176.09
2022-10-14T15:08:39.691Z,101179.00
2022-10-14T15:13:53.127Z,101181.22
2022-10-14T15:16:42.047Z,101184.00
2022-10-14T15:19:34.119Z,101180.09
2022-10-14T15:22:31.171Z,101188.47
2022-10-14T15:25:05.719Z,101188.88
2022-10-14T15:27:51.970Z,101188.19
2022-10-14T15:30:28.431Z,101184.06
2022-10-14T15:33:20.181Z,101185.22
2022-10-14T15:35:58.691Z,101189.03
2022-10-14T15:41:09.799Z,101192.78
2022-10-14T15:43:41.449Z,101188.53
2022-10-14T15:46:33.401Z,101195.69
2022-10-14T15:49:06.652Z,101193.16
2022-10-14T15:51:38.811Z,101187.09
2022-10-14T15:54:14.052Z,101184.47
2022-10-14T15:56:47.347Z,101190.75
2022-10-14T15:59:19.911Z,101194.44
2022-10-14T16:01:51.036Z,101191.09
2022-10-14T16:04:24.973Z,101189.34
2022-10-14T16:06:57.079Z,101195.75
2022-10-14T16:09:29.422Z,101188.72
2022-10-14T16:11:59.613Z,101188.75
2022-10-14T16:14:31.789Z,101183.47
2022-10-14T16:17:03.593Z,101198.59
2022-10-14T16:19:34.026Z,101190.69
2022-10-14T16:22:08.100Z,101186.31
2022-10-14T16:24:41.544Z,101197.88
2022-10-14T16:27:11.771Z,101195.28
2022-10-14T16:29:43.521Z,101205.06
2022-10-14T16:32:15.932Z,101203.31
2022-10-14T16:34:47.740Z,101206.88
2022-10-14T16:37:18.522Z,101201.59
2022-10-14T16:39:48.411Z,101201.59
2022-10-14T16:42:20.395Z,101199.91
2022-10-14T16:44:53.811Z,101197.28
2022-10-14T16:47:26.651Z,101196.44
2022-10-14T16:49:59.662Z,101192.94
2022-10-14T16:52:54.468Z,101199.13
2022-10-14T16:55:29.371Z,101194.75
2022-10-14T16:58:04.494Z,101195.63
2022-10-14T17:00:40.138Z,101190.34
2022-10-14T17:03:17.726Z,101191.22
2022-10-14T17:05:59.242Z,101193.88
2022-10-14T17:08:32.065Z,101192.13
2022-10-14T17:11:06.252Z,101198.31
2022-10-14T17:13:40.676Z,101196.56
2022-10-14T17:16:14.200Z,101199.19
2022-10-14T17:18:46.181Z,101199.19
2022-10-14T17:21:19.820Z,101200.06
2022-10-14T17:23:50.971Z,101199.19
2022-10-14T17:26:21.580Z,101198.25
2022-10-14T17:28:51.936Z,101194.72
2022-10-14T17:31:28.066Z,101196.50
2022-10-14T17:34:00.232Z,101197.41
2022-10-14T17:36:32.211Z,101195.66
2022-10-14T17:39:03.070Z,101199.19
2022-10-14T17:41:33.372Z,101191.19
2022-10-14T17:44:04.412Z,101194.72
2022-10-14T17:46:36.232Z,101191.22
2022-10-14T17:49:10.301Z,101191.19
2022-10-14T17:51:40.982Z,101192.94
2022-10-14T17:54:13.587Z,101186.75
2022-10-14T17:56:43.710Z,101187.63
2022-10-14T17:59:14.579Z,101182.34
2022-10-14T18:02:03.429Z,101173.53
2022-10-14T18:04:34.460Z,101188.53
2022-10-14T18:07:04.579Z,101170.88
2022-10-14T18:09:35.412Z,101188.53
2022-10-14T18:12:10.111Z,101184.97
2022-10-14T18:14:42.211Z,101179.69
2022-10-14T18:17:14.143Z,101175.28
2022-10-14T18:19:51.875Z,101176.16
2022-10-14T18:22:23.952Z,101169.13
2022-10-14T18:24:54.622Z,101171.78
2022-10-14T18:27:25.666Z,101171.78
2022-10-14T18:29:56.192Z,101167.34
2022-10-14T18:32:27.772Z,101162.06
2022-10-14T18:34:57.922Z,101163.84
2022-10-14T18:37:27.987Z,101163.84
2022-10-14T18:39:58.047Z,101162.06
2022-10-14T18:42:28.472Z,101159.44
2022-10-14T18:44:59.480Z,101161.16
2022-10-14T18:47:31.751Z,101157.66
2022-10-14T18:52:36.891Z,101158.50
2022-10-14T18:55:07.652Z,101159.38
2022-10-14T18:57:38.713Z,101155.88
2022-10-14T19:00:13.558Z,101165.56
2022-10-14T19:02:46.103Z,101155.84
2022-10-14T19:05:16.472Z,101155.81
2022-10-14T19:07:47.811Z,101155.78
2022-10-14T19:10:17.951Z,101144.31
2022-10-14T19:12:48.181Z,101153.97
2022-10-14T19:15:18.832Z,101159.25
2022-10-14T19:17:54.517Z,101155.66
2022-10-14T19:20:24.792Z,101148.59
2022-10-14T19:22:56.651Z,101150.31
2022-10-14T19:25:27.012Z,101148.50
2022-10-14T19:27:57.451Z,101143.19
2022-10-14T19:30:29.426Z,101151.03
2022-10-14T19:33:01.910Z,101145.72
2022-10-14T19:35:31.872Z,101144.78
2022-10-14T19:38:02.201Z,101141.25
2022-10-14T19:40:32.153Z,101140.38
2022-10-14T19:43:02.220Z,101141.19
2022-10-14T19:45:32.806Z,101141.22
2022-10-14T19:48:06.284Z,101139.50
2022-10-14T19:50:36.915Z,101133.41
2022-10-14T19:53:07.317Z,101141.34
2022-10-14T19:55:38.505Z,101134.28
2022-10-14T19:58:08.661Z,101121.06
2022-10-14T20:00:40.058Z,101125.38
2022-10-14T20:03:13.246Z,101127.13
2022-10-14T20:05:44.769Z,101123.53
2022-10-14T20:10:50.202Z,101119.91
2022-10-14T20:13:20.465Z,101114.53
2022-10-14T20:15:56.565Z,101118.88
2022-10-14T20:18:31.087Z,101118.78
2022-10-14T20:21:04.043Z,101113.38
2022-10-14T20:23:36.646Z,101122.19
2022-10-14T20:26:09.062Z,101122.13
2022-10-14T20:28:39.858Z,101120.31
2022-10-14T20:31:12.613Z,101117.63
2022-10-14T20:33:44.638Z,101118.44
2022-10-14T20:36:16.994Z,101114.91
2022-10-14T20:38:50.021Z,101111.47
2022-10-14T20:41:23.333Z,101115.78
2022-10-14T20:43:54.394Z,101124.53
2022-10-14T20:46:25.405Z,101112.22
2022-10-14T20:49:00.486Z,101116.75
2022-10-14T20:51:31.621Z,101117.63
2022-10-14T20:54:05.086Z,101116.84
2022-10-14T20:56:37.837Z,101114.09
2022-10-14T20:59:09.754Z,101122.91
2022-10-14T21:01:43.705Z,101110.69
2022-10-14T21:04:16.702Z,101116.00
2022-10-14T21:06:49.202Z,101112.56
2022-10-14T21:09:19.028Z,101124.88
2022-10-14T21:11:49.373Z,101120.31
2022-10-14T21:14:19.614Z,101106.06
2022-10-14T21:16:49.701Z,101113.09
2022-10-14T21:19:22.413Z,101077.00
2022-10-14T21:21:52.413Z,101117.63
2022-10-14T21:24:24.102Z,101110.63
2022-10-14T21:26:55.467Z,101112.34
2022-10-14T21:29:27.520Z,101109.72
2022-10-14T21:31:57.492Z,101107.97
2022-10-14T21:34:30.374Z,101109.72
2022-10-14T21:37:00.732Z,101108.81
2022-10-14T21:39:31.124Z,101101.78
2022-10-14T21:42:01.292Z,101104.44
2022-10-14T21:44:31.370Z,101103.50
2022-10-14T21:47:01.904Z,101098.22
2022-10-14T21:49:33.422Z,101097.28
2022-10-14T21:52:03.824Z,101093.81
2022-10-14T21:54:33.854Z,101089.38
2022-10-14T21:57:04.354Z,101095.53
2022-10-14T21:59:35.304Z,101085.84
2022-10-14T22:02:05.573Z,101092.69
2022-10-14T22:04:42.412Z,101093.47
2022-10-14T22:07:13.914Z,101088.06
2022-10-14T22:09:43.854Z,101094.97
2022-10-14T22:12:15.060Z,101088.00
2022-10-14T22:14:45.021Z,101082.59
2022-10-14T22:17:15.215Z,101093.84
2022-10-14T22:19:46.722Z,101090.34
2022-10-14T22:22:17.174Z,101093.75
2022-10-14T22:24:47.254Z,101096.38
2022-10-14T22:27:17.241Z,101090.94
2022-10-14T22:29:47.543Z,101091.66
2022-10-14T22:32:18.265Z,101096.03
2022-10-14T22:34:51.304Z,101083.84
2022-10-14T22:37:21.741Z,101096.28
2022-10-14T22:39:52.205Z,101077.00
2022-10-14T22:42:22.182Z,101084.00
2022-10-14T22:44:52.324Z,101085.75
2022-10-14T22:47:23.029Z,101087.38
2022-10-14T22:49:54.642Z,101081.13
2022-10-14T22:52:25.237Z,101080.25
2022-10-14T22:54:55.524Z,101083.84
2022-10-14T22:57:25.562Z,101081.31
2022-10-14T22:59:56.012Z,101072.59
2022-10-14T23:02:26.445Z,101073.50
2022-10-14T23:04:59.066Z,101069.09
2022-10-14T23:07:30.294Z,101066.38
2022-10-14T23:10:00.652Z,101065.41
2022-10-14T23:12:30.812Z,101056.63
2022-10-14T23:15:01.031Z,101062.69
2022-10-14T23:17:32.361Z,101054.72
2022-10-14T23:20:03.654Z,101050.31
2022-10-14T23:22:36.333Z,101052.94
2022-10-14T23:25:07.361Z,101050.25
2022-10-14T23:27:37.349Z,101046.72
2022-10-14T23:30:09.402Z,101047.69
2022-10-14T23:32:39.234Z,101052.09
2022-10-14T23:35:11.445Z,101042.34
2022-10-14T23:37:41.407Z,101056.47
2022-10-14T23:40:12.884Z,101045.91
2022-10-14T23:42:43.104Z,101038.94
2022-10-14T23:45:13.592Z,101043.22
2022-10-14T23:47:43.583Z,101038.03
2022-10-14T23:50:14.982Z,101027.53
2022-10-14T23:52:46.182Z,101031.91
2022-10-14T23:55:16.456Z,101028.38
2022-10-14T23:57:46.863Z,101037.97
